Latest Weather Observations for Devonport Airport

IDT60801

Issued at 6:31 pm EDT Thursday 2 April 2015 (issued every 30 minutes, with the page automatically refreshed every 10 minutes)

About weather observations | Map of weather stations | Latest weather observations for TAS | Other Formats
Station Details ID: 091126 Name: DEVONPORT AIRPORT Lat: -41.17 Lon: 146.43 Height: 8.0 m
Data from the previous 72 hours. | See also: Recent months at Devonport Airport
Date/Time
EDT
Temp
°C
App
Temp
°C
Dew
Point
Rel
Hum
%
Delta-T
°C
Wind Press
QNH
hPa
Press
MSL
hPa
Rain
since 9 am
mm
Dir
 
Spd
km/h
Gust
km/h
Spd
kts
Gust
kts
02/06:30pm 14.4 9.7 5.0 53 4.4 SE 19 24 10 13 1021.8 1021.8 4.8
02/06:00pm 15.7 10.9 4.7 48 5.1 SSE 19 26 10 14 1021.1 1021.2 4.8
02/05:30pm 16.0 11.2 4.4 46 5.4 SSE 19 26 10 14 1020.7 1020.7 4.8
02/05:00pm 16.7 11.7 3.7 42 6.0 SSW 19 30 10 16 1020.3 1020.2 4.8
02/04:30pm 16.7 11.7 3.4 41 6.1 SSW 19 32 10 17 1020.1 1020.0 4.8
02/04:00pm 16.5 11.4 4.2 44 5.7 SSW 20 32 11 17 1019.8 1019.7 4.8
02/03:30pm 16.4 10.6 4.4 45 5.6 SSW 24 35 13 19 1019.5 1019.4 4.8
02/03:00pm 16.3 11.3 4.7 46 5.5 SSW 20 39 11 21 1019.3 1019.2 4.8
02/02:30pm 17.6 13.1 5.9 46 5.7 S 19 30 10 16 1019.1 1019.0 4.8
02/02:00pm 16.1 10.1 5.4 49 5.1 SSE 26 37 14 20 1019.2 1019.1 4.8
02/01:30pm 16.4 11.0 6.5 52 4.8 S 24 33 13 18 1019.0 1018.9 4.8
02/01:00pm 15.8 10.9 6.8 55 4.4 S 22 35 12 19 1019.0 1018.9 4.8
02/12:30pm 14.2 11.2 7.7 65 3.2 SSW 13 32 7 17 1018.8 1018.7 4.8
02/12:00pm 13.1 10.6 8.0 71 2.5 SW 11 20 6 11 1018.2 1018.1 4.8
02/11:30am 12.5 10.0 8.4 76 2.0 SSW 11 15 6 8 1017.0 1017.0 4.8
02/11:00am 11.0 7.9 8.8 86 1.1 SSW 15 20 8 11 1015.9 1015.9 4.8
02/10:30am 10.6 6.6 8.9 89 0.8 S 20 33 11 18 1015.1 1015.1 4.2
02/10:00am 11.0 5.5 9.3 89 0.8 SSE 28 39 15 21 1014.4 1014.4 2.6
02/09:30am 11.3 8.2 10.4 94 0.5 SSW 17 30 9 16 1013.5 1013.5 1.8
02/09:00am 11.6 6.6 11.1 97 0.3 S 28 37 15 20 1012.1 1012.1 2.4
02/08:30am 12.0 6.0 10.7 92 0.7 SE 33 52 18 28 1011.3 1011.3 0.4
02/08:24am 12.2 6.1 10.4 89 0.9 SE 33 52 18 28 1011.0 1011.0 0.0
02/08:14am 12.2 8.0 11.1 93 0.6 SE 24 39 13 21 1010.8 1010.8 0.0
02/08:00am 11.2 9.4 10.7 97 0.3 SSE 11 19 6 10 1010.2 1010.2 0.0
02/07:30am 11.3 9.9 11.0 98 0.2 SSW 9 11 5 6 1009.5 1009.5 0.0
02/07:00am 10.5 8.8 10.0 97 0.3 S 9 11 5 6 1008.9 1008.9 0.0
02/06:30am 11.4 10.5 10.8 96 0.3 S 6 7 3 4 1008.5 1008.5 0.0
02/06:00am 12.8 11.4 12.2 96 0.3 WSW 11 11 6 6 1008.5 1008.5 0.0
02/05:30am 12.3 10.2 11.2 93 0.6 WSW 13 15 7 8 1008.4 1008.4 0.0
02/05:00am 13.2 11.4 12.1 93 0.6 WSW 13 17 7 9 1008.3 1008.3 0.0
02/04:30am 13.1 11.5 11.7 91 0.7 W 11 15 6 8 1008.1 1008.1 0.0
02/04:00am 13.8 12.0 12.2 90 0.9 W 13 19 7 10 1008.1 1008.1 0.0
02/03:30am 15.5 12.4 13.3 87 1.2 WNW 22 26 12 14 1008.0 1008.0 0.0
02/03:00am 16.3 12.6 13.8 85 1.4 WNW 26 32 14 17 1008.4 1008.4 0.0
02/02:30am 16.6 12.0 13.5 82 1.7 WNW 30 35 16 19 1008.3 1008.3 0.0
02/02:00am 17.0 15.3 14.6 86 1.4 NW 17 20 9 11 1007.8 1007.8 0.0
02/01:30am 17.2 13.2 16.1 93 0.7 NW 32 39 17 21 1007.7 1007.7 0.0
02/01:00am 17.6 14.2 15.8 89 1.1 NW 28 37 15 20 1008.2 1008.2 0.0
02/12:30am 17.7 16.0 15.7 88 1.2 NW 19 24 10 13 1008.6 1008.6 0.0
02/12:00am 15.7 17.4 15.2 97 0.3 CALM 0 0 0 0 1009.2 1009.2 0.0
 
Date/Time
EDT
Temp
°C
App
Temp
°C
Dew
Point
Rel
Hum
%
Delta-T
°C
Wind Press
QNH
hPa
Press
MSL
hPa
Rain
since 9 am
mm
Dir
 
Spd
km/h
Gust
km/h
Spd
kts
Gust
kts
01/11:30pm 15.9 17.6 15.3 96 0.3 CALM 0 0 0 0 1009.3 1009.3 0.0
01/11:00pm 16.1 16.8 15.5 96 0.3 WSW 6 7 3 4 1009.5 1009.5 0.0
01/10:30pm 16.3 16.8 15.5 95 0.5 SSW 7 11 4 6 1009.6 1009.6 0.0
01/10:00pm 16.6 18.4 15.5 93 0.6 CALM 0 7 0 4 1008.9 1008.9 0.0
01/09:30pm 16.7 16.0 15.4 92 0.8 SSE 13 15 7 8 1008.8 1008.8 0.0
01/09:00pm 17.2 18.4 15.9 92 0.8 ENE 4 9 2 5 1009.8 1009.8 0.0
01/08:30pm 16.8 16.2 15.7 93 0.6 ENE 13 17 7 9 1009.6 1009.6 0.0
01/08:00pm 16.9 16.0 15.8 93 0.6 ENE 15 20 8 11 1009.6 1009.6 0.0
01/07:30pm 17.1 17.4 16.0 93 0.6 ENE 9 11 5 6 1010.5 1010.5 0.0
01/07:00pm 17.5 17.2 16.5 94 0.6 E 13 17 7 9 1010.5 1010.5 0.0
01/06:30pm 17.8 17.3 16.8 94 0.6 ENE 15 19 8 10 1010.7 1010.7 0.0
01/06:00pm 18.0 17.2 17.0 94 0.6 NE 17 24 9 13 1010.9 1010.9 0.0
01/05:30pm 18.5 17.4 17.3 93 0.7 ENE 19 24 10 13 1010.7 1010.7 0.0
01/05:00pm 19.4 18.5 17.7 90 1.0 NE 19 24 10 13 1011.3 1011.3 0.0
01/04:30pm 19.1 18.4 17.4 90 1.0 NE 17 20 9 11 1011.7 1011.7 0.0
01/04:00pm 18.0 18.0 16.2 89 1.1 NNE 11 15 6 8 1012.3 1012.3 0.0
01/03:30pm 18.7 18.6 16.1 85 1.5 NNE 11 13 6 7 1012.8 1012.8 0.0
01/03:00pm 17.9 17.8 15.9 88 1.2 NNE 11 13 6 7 1013.4 1013.4 0.0
01/02:43pm 18.2 18.3 16.5 90 1.0 NE 11 13 6 7 1013.7 1013.7 0.0
01/02:30pm 17.9 17.5 16.2 90 1.0 NE 13 17 7 9 1013.9 1013.9 0.0
01/02:00pm 18.1 18.8 16.1 88 1.2 NE 7 11 4 6 1014.7 1014.7 0.0
01/01:30pm 17.6 17.8 15.8 89 1.1 NE 9 13 5 7 1015.3 1015.3 0.0
01/01:00pm 17.1 16.7 15.3 89 1.0 ENE 11 15 6 8 1015.9 1015.9 0.0
01/12:30pm 16.8 16.4 15.3 91 0.9 NE 11 13 6 7 1016.5 1016.5 0.0
01/12:00pm 16.8 17.3 15.0 89 1.0 ENE 6 13 3 7 1016.9 1016.9 0.0
01/11:30am 16.2 15.5 14.2 88 1.1 SSE 11 19 6 10 1017.0 1017.0 0.0
01/11:00am 15.8 14.9 13.8 88 1.1 S 11 13 6 7 1017.8 1017.8 0.0
01/10:30am 15.0 13.9 13.2 89 1.0 S 11 15 6 8 1018.5 1018.4 0.0
01/10:00am 14.7 13.2 13.2 91 0.8 SSE 13 15 7 8 1018.4 1018.3 0.0
01/09:30am 14.2 12.4 13.2 94 0.6 SSE 15 17 8 9 1018.7 1018.6 0.0
01/09:00am 13.4 11.7 12.6 95 0.4 S 13 17 7 9 1019.0 1018.9 0.0
01/08:30am 12.5 10.7 12.0 97 0.3 S 13 17 7 9 1019.2 1019.1 0.0
01/08:00am 12.2 10.3 11.9 98 0.2 SSE 13 17 7 9 1019.0 1018.9 0.0
01/07:30am 12.0 10.1 11.7 98 0.2 SSE 13 15 7 8 1019.3 1019.2 0.0
01/07:00am 11.8 9.8 11.5 98 0.2 S 13 15 7 8 1019.6 1019.5 0.0
01/06:30am 11.1 8.1 10.8 98 0.2 S 17 19 9 10 1019.8 1019.7 0.0
01/06:04am 11.7 9.3 11.5 99 0.1 S 15 19 8 10 1019.9 1019.8 0.0
01/06:00am 11.7 9.3 11.5 99 0.1 S 15 19 8 10 1020.0 1019.9 0.0
01/05:30am 11.5 9.1 11.5 100 0.0 S 15 19 8 10 1020.1 1020.0 0.0
01/05:19am 11.2 9.1 11.2 100 0.0 S 13 17 7 9 1020.0 1019.9 0.0
01/05:00am 10.9 8.7 10.9 100 0.0 S 13 17 7 9 1020.4 1020.3 0.0
01/04:30am 10.3 7.6 10.3 100 0.0 SSE 15 19 8 10 1020.6 1020.5 0.0
01/04:00am 10.4 8.1 10.4 100 0.0 S 13 15 7 8 1020.9 1020.8 0.0
01/03:30am 10.4 8.1 10.4 100 0.0 S 13 17 7 9 1021.2 1021.1 0.0
01/03:00am 10.1 7.3 10.1 100 0.0 S 15 17 8 9 1021.6 1021.5 0.0
01/02:30am 10.3 7.9 10.1 99 0.1 S 13 15 7 8 1022.2 1022.1 0.0
01/02:00am 10.3 7.9 10.1 99 0.1 S 13 15 7 8 1022.3 1022.2 0.0
01/01:30am 10.6 8.3 10.3 98 0.2 S 13 13 7 7 1022.6 1022.5 0.0
01/01:00am 10.1 8.7 9.5 96 0.3 S 7 11 4 6 1022.6 1022.5 0.0
01/12:30am 10.3 9.4 9.4 94 0.4 W 4 6 2 3 1022.9 1022.8 0.0
01/12:00am 11.4 10.1 10.0 91 0.7 W 7 7 4 4 1023.2 1023.1 0.0
 
Date/Time
EDT
Temp
°C
App
Temp
°C
Dew
Point
Rel
Hum
%
Delta-T
°C
Wind Press
QNH
hPa
Press
MSL
hPa
Rain
since 9 am
mm
Dir
 
Spd
km/h
Gust
km/h
Spd
kts
Gust
kts
31/11:30pm 13.5 12.2 11.4 87 1.1 W 9 11 5 6 1023.3 1023.2 0.0
31/11:00pm 15.3 12.4 12.2 82 1.7 WNW 19 24 10 13 1023.4 1023.3 0.0
31/10:30pm 15.6 12.6 12.5 82 1.7 WNW 20 26 11 14 1023.6 1023.5 0.0
31/10:00pm 15.7 12.5 13.0 84 1.5 NW 22 28 12 15 1023.7 1023.6 0.0
31/09:30pm 16.0 12.4 13.1 83 1.6 NW 24 30 13 16 1023.6 1023.5 0.0
31/09:00pm 16.0 12.9 13.3 84 1.5 NW 22 30 12 16 1023.4 1023.3 0.0
31/08:30pm 15.9 13.1 13.2 84 1.5 NW 20 26 11 14 1023.3 1023.2 0.0
31/08:00pm 16.1 13.4 13.4 84 1.5 NW 20 26 11 14 1023.2 1023.1 0.0
31/07:30pm 15.9 13.1 13.2 84 1.5 NW 20 26 11 14 1023.1 1023.0 0.0
31/07:00pm 16.0 13.1 12.9 82 1.7 NW 20 26 11 14 1023.0 1022.9 0.0
31/06:30pm 16.3 13.0 12.8 80 1.9 NW 22 28 12 15 1022.8 1022.7 0.0
31/06:00pm 16.7 13.8 12.8 78 2.2 NW 20 26 11 14 1022.6 1022.5 0.0
31/05:30pm 17.1 13.8 12.8 76 2.4 NNW 22 28 12 15 1022.7 1022.6 0.0
31/05:00pm 17.2 13.5 12.7 75 2.5 NW 24 30 13 16 1022.9 1022.8 0.0
31/04:30pm 17.7 13.6 12.6 72 2.8 NW 26 30 14 16 1023.2 1023.1 0.0
31/04:00pm 17.8 14.6 13.1 74 2.6 NW 22 28 12 15 1023.3 1023.2 0.0
31/03:30pm 17.9 14.2 12.6 71 3.0 NW 24 30 13 16 1023.6 1023.5 0.0
31/03:00pm 17.3 13.0 12.2 72 2.8 NW 26 32 14 17 1023.8 1023.7 0.0
31/02:30pm 17.6 13.5 12.7 73 2.7 NW 26 32 14 17 1024.1 1024.0 0.0
31/02:00pm 17.4 12.8 12.3 72 2.8 NW 28 35 15 19 1024.5 1024.4 0.0
31/01:30pm 17.5 12.5 12.2 71 2.9 NW 30 35 16 19 1024.6 1024.5 0.0
31/01:00pm 17.7 14.0 12.6 72 2.8 NW 24 33 13 18 1025.1 1025.0 0.0
31/12:30pm 17.1 13.5 11.8 71 2.9 NW 22 28 12 15 1025.5 1025.4 0.0
31/12:00pm 16.7 14.4 11.6 72 2.8 NNW 15 26 8 14 1025.7 1025.6 0.0
31/11:30am 15.5 13.8 11.1 75 2.3 N 11 17 6 9 1026.0 1025.9 0.0
31/11:00am 15.1 14.0 10.5 74 2.4 N 7 11 4 6 1026.1 1026.0 0.0
31/10:30am 14.8 14.2 10.4 75 2.3 WSW 4 7 2 4 1026.3 1026.2 0.0
31/10:00am 13.1 11.7 9.7 80 1.7 SSW 7 9 4 5 1026.2 1026.1 0.0
31/09:30am 11.5 10.0 9.1 85 1.2 S 7 9 4 5 1026.3 1026.2 0.0
31/09:00am 10.3 8.9 9.4 94 0.4 SSE 7 11 4 6 1026.0 1025.9 0.0
31/08:30am 8.4 5.4 7.8 96 0.3 S 13 15 7 8 1026.0 1025.9 0.0
31/08:00am 7.4 4.6 7.1 98 0.1 S 11 17 6 9 1025.8 1025.7 0.0
31/07:30am 6.9 3.3 6.6 98 0.1 SSE 15 17 8 9 1025.4 1025.3 0.0
31/07:00am 6.7 3.4 6.3 97 0.2 S 13 17 7 9 1025.1 1025.0 0.0
31/06:30am 6.7 3.8 6.3 97 0.2 SSW 11 13 6 7 1024.8 1024.7 0.0
31/06:00am 7.7 5.4 7.3 97 0.2 SSW 9 11 5 6 1024.5 1024.4 0.0
31/05:30am 7.5 5.1 6.9 96 0.3 S 9 11 5 6 1024.4 1024.3 0.0
31/05:00am 7.6 4.4 7.0 96 0.3 SSE 13 17 7 9 1024.1 1024.0 0.0
31/04:30am 7.2 5.2 6.3 94 0.4 SSW 6 7 3 4 1024.3 1024.2 0.0
31/04:00am 8.0 5.6 7.1 94 0.4 S 9 11 5 6 1024.0 1023.9 0.0
31/03:30am 8.1 5.7 7.0 93 0.5 S 9 11 5 6 1024.2 1024.1 0.0
31/03:00am 8.6 6.4 6.4 86 1.0 SSW 7 11 4 6 1024.4 1024.3 0.0
31/02:30am 10.1 8.4 8.5 90 0.8 SE 7 13 4 7 1024.3 1024.2 0.0
31/02:00am 10.0 7.8 7.8 86 1.1 SSW 9 13 5 7 1024.2 1024.1 0.0
31/01:30am 10.8 8.6 7.9 82 1.4 W 9 11 5 6 1024.3 1024.2 0.0
31/01:00am 11.5 8.0 8.9 84 1.3 W 17 20 9 11 1024.2 1024.1 0.0
31/12:30am 12.7 9.1 9.7 82 1.5 W 19 24 10 13 1024.2 1024.1 0.0
31/12:00am 13.2 8.7 10.0 81 1.6 W 24 30 13 16 1024.3 1024.2 0.0
 
Date/Time
EDT
Temp
°C
App
Temp
°C
Dew
Point
Rel
Hum
%
Delta-T
°C
Wind Press
QNH
hPa
Press
MSL
hPa
Rain
since 9 am
mm
Dir
 
Spd
km/h
Gust
km/h
Spd
kts
Gust
kts
30/11:30pm 13.6 9.9 10.2 80 1.8 W 20 28 11 15 1024.3 1024.2 0.0
30/11:00pm 13.7 9.5 9.9 78 1.9 W 22 26 12 14 1024.2 1024.1 0.0
30/10:30pm 13.8 9.7 10.0 78 2.0 W 22 26 12 14 1024.2 1024.1 0.0
30/10:00pm 13.7 9.9 9.9 78 1.9 W 20 24 11 13 1024.2 1024.1 0.0
30/09:30pm 13.0 9.2 8.9 76 2.1 W 19 22 10 12 1024.1 1024.0 0.0
30/09:00pm 14.1 10.3 9.9 76 2.2 W 20 26 11 14 1024.0 1023.9 0.0
30/08:30pm 14.3 11.4 9.7 74 2.4 W 15 19 8 10 1023.7 1023.6 0.0
30/08:00pm 14.7 12.5 9.5 71 2.7 W 11 15 6 8 1023.3 1023.2 0.0
30/07:30pm 16.3 12.2 10.2 67 3.2 W 22 28 12 15 1022.7 1022.6 0.0
30/07:00pm 16.9 13.0 9.6 62 3.8 W 20 26 11 14 1022.2 1022.1 0.0

Other Formats:

Comma delimited format used in spreadsheet applications
http://www.bom.gov.au/fwo/IDT60801/IDT60801.95960.axf

JavaScript Object Notation format (JSON) in row-major order
http://www.bom.gov.au/fwo/IDT60801/IDT60801.95960.json